KPOC

Brackett Field Airport

La Verne, California, USA
METAR KPOC 180447Z 00000KT 10SM OVC013 13/13 A3019 RMK LAST
Observed Flight Rules
Dec-18 @ 04:47 UTC (8 hours ago) Marginal Visual Flight Rules
Visibility Clouds
10 miles
  • Overcast at 1,300' AGL
Temperatures Readings
Current 13°C / 55°F
Dewpoint 13°C / 55°F
Humidity 100%
Altimeter 30.19" Hg
Pressure 1022 hPa
Elevation 308
METAR KPOC 180447Z 00000KT 10SM OVC013 13/13 A3019 RMK LAST
Observed Flight Rules
Dec-18 @ 04:47 UTC
(8 hours ago)
MVFR
Clouds
  • Overcast at 1,300' AGL
Temperature Dewpoint
13°C / 55°F 13°C / 55°F
Humidity Altimeter Pressure
100% 30.19" Hg 1022 hPa